sensor_id;sensor_type;location;lat;lon;timestamp;temperature;humidity
46416;DHT22;32620;51.704;7.822;2022-07-23T00:00:57;16.40;99.90
46416;DHT22;32620;51.704;7.822;2022-07-23T00:03:23;16.40;99.90
46416;DHT22;32620;51.704;7.822;2022-07-23T00:05:48;16.30;99.90
46416;DHT22;32620;51.704;7.822;2022-07-23T00:08:14;16.40;99.90
46416;DHT22;32620;51.704;7.822;2022-07-23T00:10:40;16.30;99.90
46416;DHT22;32620;51.704;7.822;2022-07-23T00:13:05;16.20;99.90
46416;DHT22;32620;51.704;7.822;2022-07-23T00:15:31;16.20;99.90
46416;DHT22;32620;51.704;7.822;2022-07-23T00:17:56;16.20;99.90
46416;DHT22;32620;51.704;7.822;2022-07-23T00:20:21;16.10;99.90
46416;DHT22;32620;51.704;7.822;2022-07-23T00:22:47;16.00;99.90
46416;DHT22;32620;51.704;7.822;2022-07-23T00:25:13;16.00;99.90
46416;DHT22;32620;51.704;7.822;2022-07-23T00:27:38;16.00;99.90
46416;DHT22;32620;51.704;7.822;2022-07-23T00:30:04;16.00;99.90
46416;DHT22;32620;51.704;7.822;2022-07-23T00:32:30;15.90;99.90
46416;DHT22;32620;51.704;7.822;2022-07-23T00:34:55;15.90;99.90
46416;DHT22;32620;51.704;7.822;2022-07-23T00:37:21;15.80;99.90
46416;DHT22;32620;51.704;7.822;2022-07-23T00:39:46;15.80;99.90
46416;DHT22;32620;51.704;7.822;2022-07-23T00:42:12;15.80;99.90
46416;DHT22;32620;51.704;7.822;2022-07-23T00:44:37;15.70;99.90
46416;DHT22;32620;51.704;7.822;2022-07-23T00:47:03;15.70;99.90
46416;DHT22;32620;51.704;7.822;2022-07-23T00:49:31;15.70;99.90
46416;DHT22;32620;51.704;7.822;2022-07-23T00:51:57;15.70;99.90
46416;DHT22;32620;51.704;7.822;2022-07-23T00:54:24;15.70;99.90
46416;DHT22;32620;51.704;7.822;2022-07-23T00:56:50;15.70;99.90
46416;DHT22;32620;51.704;7.822;2022-07-23T00:59:15;15.70;99.90
46416;DHT22;32620;51.704;7.822;2022-07-23T01:01:41;15.70;99.90
46416;DHT22;32620;51.704;7.822;2022-07-23T01:04:06;15.60;99.90
46416;DHT22;32620;51.704;7.822;2022-07-23T01:06:34;15.60;99.90
46416;DHT22;32620;51.704;7.822;2022-07-23T01:09:00;15.60;99.90
46416;DHT22;32620;51.704;7.822;2022-07-23T01:11:25;15.50;99.90
46416;DHT22;32620;51.704;7.822;2022-07-23T01:13:51;15.50;99.90
46416;DHT22;32620;51.704;7.822;2022-07-23T01:16:16;15.50;99.90
46416;DHT22;32620;51.704;7.822;2022-07-23T01:18:42;15.50;99.90
46416;DHT22;32620;51.704;7.822;2022-07-23T01:21:08;15.50;99.90
46416;DHT22;32620;51.704;7.822;2022-07-23T01:23:35;15.60;99.90
46416;DHT22;32620;51.704;7.822;2022-07-23T01:26:00;15.60;99.90
46416;DHT22;32620;51.704;7.822;2022-07-23T01:28:26;15.50;99.90
46416;DHT22;32620;51.704;7.822;2022-07-23T01:30:51;15.50;99.90
46416;DHT22;32620;51.704;7.822;2022-07-23T01:33:16;15.50;99.90
46416;DHT22;32620;51.704;7.822;2022-07-23T01:35:42;15.50;99.90
46416;DHT22;32620;51.704;7.822;2022-07-23T01:38:08;15.40;99.90
46416;DHT22;32620;51.704;7.822;2022-07-23T01:40:33;15.50;99.90
46416;DHT22;32620;51.704;7.822;2022-07-23T01:42:58;15.50;99.90
46416;DHT22;32620;51.704;7.822;2022-07-23T01:45:24;15.50;99.90
46416;DHT22;32620;51.704;7.822;2022-07-23T01:47:49;15.50;99.90
46416;DHT22;32620;51.704;7.822;2022-07-23T01:50:15;15.40;99.90
46416;DHT22;32620;51.704;7.822;2022-07-23T01:52:40;15.40;99.90
46416;DHT22;32620;51.704;7.822;2022-07-23T01:55:06;15.40;99.90
46416;DHT22;32620;51.704;7.822;2022-07-23T01:57:32;15.40;99.90
46416;DHT22;32620;51.704;7.822;2022-07-23T01:59:57;15.40;99.90
46416;DHT22;32620;51.704;7.822;2022-07-23T02:02:23;15.40;99.90
46416;DHT22;32620;51.704;7.822;2022-07-23T02:04:48;15.40;99.90
46416;DHT22;32620;51.704;7.822;2022-07-23T02:07:14;15.40;99.90
46416;DHT22;32620;51.704;7.822;2022-07-23T02:09:39;15.40;99.90
46416;DHT22;32620;51.704;7.822;2022-07-23T02:12:05;15.40;99.90
46416;DHT22;32620;51.704;7.822;2022-07-23T02:14:30;15.40;99.90
46416;DHT22;32620;51.704;7.822;2022-07-23T02:16:56;15.40;99.90
46416;DHT22;32620;51.704;7.822;2022-07-23T02:19:21;15.40;99.90
46416;DHT22;32620;51.704;7.822;2022-07-23T02:21:47;15.40;99.90
46416;DHT22;32620;51.704;7.822;2022-07-23T02:24:13;15.40;99.90
46416;DHT22;32620;51.704;7.822;2022-07-23T02:26:38;15.40;99.90
46416;DHT22;32620;51.704;7.822;2022-07-23T02:29:04;15.40;99.90
46416;DHT22;32620;51.704;7.822;2022-07-23T02:31:30;15.40;99.90
46416;DHT22;32620;51.704;7.822;2022-07-23T02:33:55;15.40;99.90
46416;DHT22;32620;51.704;7.822;2022-07-23T02:36:21;15.40;99.90
46416;DHT22;32620;51.704;7.822;2022-07-23T02:38:46;15.40;99.90
46416;DHT22;32620;51.704;7.822;2022-07-23T02:41:12;15.30;99.90
46416;DHT22;32620;51.704;7.822;2022-07-23T02:43:37;15.40;99.90
46416;DHT22;32620;51.704;7.822;2022-07-23T02:46:03;15.30;99.90
46416;DHT22;32620;51.704;7.822;2022-07-23T02:48:29;15.30;99.90
46416;DHT22;32620;51.704;7.822;2022-07-23T02:50:54;15.30;99.90
46416;DHT22;32620;51.704;7.822;2022-07-23T02:53:22;15.30;99.90
46416;DHT22;32620;51.704;7.822;2022-07-23T02:55:47;15.30;99.90
46416;DHT22;32620;51.704;7.822;2022-07-23T02:58:13;15.30;99.90
46416;DHT22;32620;51.704;7.822;2022-07-23T03:00:38;15.20;99.90
46416;DHT22;32620;51.704;7.822;2022-07-23T03:03:03;15.20;99.90
46416;DHT22;32620;51.704;7.822;2022-07-23T03:05:29;15.10;99.90
46416;DHT22;32620;51.704;7.822;2022-07-23T03:07:54;15.00;99.90
46416;DHT22;32620;51.704;7.822;2022-07-23T03:10:20;15.00;99.90
46416;DHT22;32620;51.704;7.822;2022-07-23T03:12:45;15.00;99.90
46416;DHT22;32620;51.704;7.822;2022-07-23T03:15:11;15.10;99.90
46416;DHT22;32620;51.704;7.822;2022-07-23T03:17:36;15.10;99.90
46416;DHT22;32620;51.704;7.822;2022-07-23T03:20:02;15.10;99.90
46416;DHT22;32620;51.704;7.822;2022-07-23T03:22:27;15.00;99.90
46416;DHT22;32620;51.704;7.822;2022-07-23T03:24:53;15.00;99.90
46416;DHT22;32620;51.704;7.822;2022-07-23T03:27:21;15.00;99.90
46416;DHT22;32620;51.704;7.822;2022-07-23T03:29:47;15.00;99.90
46416;DHT22;32620;51.704;7.822;2022-07-23T03:32:12;14.90;99.90
46416;DHT22;32620;51.704;7.822;2022-07-23T03:34:38;14.90;99.90
46416;DHT22;32620;51.704;7.822;2022-07-23T03:37:03;14.80;99.90
46416;DHT22;32620;51.704;7.822;2022-07-23T03:39:29;14.80;99.90
46416;DHT22;32620;51.704;7.822;2022-07-23T03:41:54;14.70;99.90
46416;DHT22;32620;51.704;7.822;2022-07-23T03:44:20;14.60;99.90
46416;DHT22;32620;51.704;7.822;2022-07-23T03:46:45;14.60;99.90
46416;DHT22;32620;51.704;7.822;2022-07-23T03:49:10;14.50;99.90
46416;DHT22;32620;51.704;7.822;2022-07-23T03:51:36;14.50;99.90
46416;DHT22;32620;51.704;7.822;2022-07-23T03:54:01;14.40;99.90
46416;DHT22;32620;51.704;7.822;2022-07-23T03:56:27;14.30;99.90
46416;DHT22;32620;51.704;7.822;2022-07-23T03:58:53;14.30;99.90
46416;DHT22;32620;51.704;7.822;2022-07-23T04:01:18;14.20;99.90
46416;DHT22;32620;51.704;7.822;2022-07-23T04:03:44;14.20;99.90
46416;DHT22;32620;51.704;7.822;2022-07-23T04:06:09;14.20;99.90
46416;DHT22;32620;51.704;7.822;2022-07-23T04:08:34;14.20;99.90
46416;DHT22;32620;51.704;7.822;2022-07-23T04:11:00;14.20;99.90
46416;DHT22;32620;51.704;7.822;2022-07-23T04:13:25;14.20;99.90
46416;DHT22;32620;51.704;7.822;2022-07-23T04:15:51;14.20;99.90
46416;DHT22;32620;51.704;7.822;2022-07-23T04:18:17;14.30;99.90
46416;DHT22;32620;51.704;7.822;2022-07-23T04:20:43;14.40;99.90
46416;DHT22;32620;51.704;7.822;2022-07-23T04:23:08;14.60;99.90
46416;DHT22;32620;51.704;7.822;2022-07-23T04:25:35;14.60;99.90
46416;DHT22;32620;51.704;7.822;2022-07-23T04:28:00;14.60;99.90
46416;DHT22;32620;51.704;7.822;2022-07-23T04:30:25;14.70;99.90
46416;DHT22;32620;51.704;7.822;2022-07-23T04:32:51;14.70;99.90
46416;DHT22;32620;51.704;7.822;2022-07-23T04:35:16;14.70;99.90
46416;DHT22;32620;51.704;7.822;2022-07-23T04:37:42;14.80;99.90
46416;DHT22;32620;51.704;7.822;2022-07-23T04:40:07;14.90;99.90
46416;DHT22;32620;51.704;7.822;2022-07-23T04:42:33;15.10;99.90
46416;DHT22;32620;51.704;7.822;2022-07-23T04:44:58;15.50;99.90
46416;DHT22;32620;51.704;7.822;2022-07-23T08:31:11;26.50;99.90
46416;DHT22;32620;51.704;7.822;2022-07-23T08:33:37;26.90;99.90
46416;DHT22;32620;51.704;7.822;2022-07-23T08:36:03;27.90;99.40
46416;DHT22;32620;51.704;7.822;2022-07-23T08:38:29;26.80;99.90
46416;DHT22;32620;51.704;7.822;2022-07-23T08:40:54;25.40;99.90
46416;DHT22;32620;51.704;7.822;2022-07-23T08:43:22;24.20;99.90
46416;DHT22;32620;51.704;7.822;2022-07-23T08:45:49;24.70;99.90
46416;DHT22;32620;51.704;7.822;2022-07-23T08:48:16;25.40;99.90
46416;DHT22;32620;51.704;7.822;2022-07-23T08:50:42;25.90;99.90
46416;DHT22;32620;51.704;7.822;2022-07-23T08:53:08;26.60;99.90
46416;DHT22;32620;51.704;7.822;2022-07-23T08:55:34;26.80;99.70
46416;DHT22;32620;51.704;7.822;2022-07-23T08:57:59;27.00;97.80
46416;DHT22;32620;51.704;7.822;2022-07-23T09:00:25;26.30;99.90
46416;DHT22;32620;51.704;7.822;2022-07-23T09:02:51;26.30;99.90
46416;DHT22;32620;51.704;7.822;2022-07-23T09:05:17;25.40;99.90
46416;DHT22;32620;51.704;7.822;2022-07-23T09:08:15;25.50;99.90
46416;DHT22;32620;51.704;7.822;2022-07-23T09:10:28;26.30;99.90
46416;DHT22;32620;51.704;7.822;2022-07-23T09:12:54;27.00;99.20
46416;DHT22;32620;51.704;7.822;2022-07-23T09:15:19;26.40;99.50
46416;DHT22;32620;51.704;7.822;2022-07-23T09:17:45;26.60;98.20
46416;DHT22;32620;51.704;7.822;2022-07-23T09:20:11;26.10;97.90
46416;DHT22;32620;51.704;7.822;2022-07-23T09:22:37;25.30;99.90
46416;DHT22;32620;51.704;7.822;2022-07-23T09:25:19;23.90;99.90
46416;DHT22;32620;51.704;7.822;2022-07-23T09:27:55;24.10;99.90
46416;DHT22;32620;51.704;7.822;2022-07-23T09:30:21;25.20;99.90
46416;DHT22;32620;51.704;7.822;2022-07-23T09:33:18;25.80;99.40
46416;DHT22;32620;51.704;7.822;2022-07-23T09:36:04;25.70;99.90
46416;DHT22;32620;51.704;7.822;2022-07-23T09:38:19;24.50;99.90
46416;DHT22;32620;51.704;7.822;2022-07-23T09:40:45;23.70;99.90
46416;DHT22;32620;51.704;7.822;2022-07-23T09:43:11;24.50;99.90
46416;DHT22;32620;51.704;7.822;2022-07-23T09:45:37;25.20;99.90
46416;DHT22;32620;51.704;7.822;2022-07-23T09:48:14;25.30;99.80
46416;DHT22;32620;51.704;7.822;2022-07-23T09:50:40;25.10;99.90
46416;DHT22;32620;51.704;7.822;2022-07-23T09:53:06;25.70;99.90
46416;DHT22;32620;51.704;7.822;2022-07-23T09:55:32;26.20;99.90
46416;DHT22;32620;51.704;7.822;2022-07-23T09:58:05;25.70;99.90
46416;DHT22;32620;51.704;7.822;2022-07-23T10:00:32;25.50;99.90
46416;DHT22;32620;51.704;7.822;2022-07-23T10:02:58;25.70;99.90
46416;DHT22;32620;51.704;7.822;2022-07-23T10:05:24;25.70;99.90
46416;DHT22;32620;51.704;7.822;2022-07-23T10:07:51;25.20;99.90
46416;DHT22;32620;51.704;7.822;2022-07-23T10:10:17;26.00;99.90
46416;DHT22;32620;51.704;7.822;2022-07-23T10:12:44;25.60;98.70
46416;DHT22;32620;51.704;7.822;2022-07-23T10:15:20;26.30;98.60
46416;DHT22;32620;51.704;7.822;2022-07-23T10:17:45;26.90;98.30
46416;DHT22;32620;51.704;7.822;2022-07-23T10:20:11;26.40;98.20
46416;DHT22;32620;51.704;7.822;2022-07-23T10:22:37;26.10;98.60
46416;DHT22;32620;51.704;7.822;2022-07-23T10:25:22;26.10;99.60
46416;DHT22;32620;51.704;7.822;2022-07-23T10:27:53;26.10;99.60
46416;DHT22;32620;51.704;7.822;2022-07-23T10:33:15;27.20;97.30
46416;DHT22;32620;51.704;7.822;2022-07-23T10:35:50;28.10;95.50
46416;DHT22;32620;51.704;7.822;2022-07-23T10:38:21;27.90;95.70
46416;DHT22;32620;51.704;7.822;2022-07-23T10:40:54;26.90;94.90
46416;DHT22;32620;51.704;7.822;2022-07-23T10:43:20;26.00;96.00
46416;DHT22;32620;51.704;7.822;2022-07-23T10:45:45;26.50;94.60
46416;DHT22;32620;51.704;7.822;2022-07-23T10:51:17;25.70;96.40
46416;DHT22;32620;51.704;7.822;2022-07-23T10:54:03;25.60;96.90
46416;DHT22;32620;51.704;7.822;2022-07-23T10:57:03;26.00;97.20
46416;DHT22;32620;51.704;7.822;2022-07-23T10:59:04;25.60;96.50
46416;DHT22;32620;51.704;7.822;2022-07-23T11:01:35;26.10;97.10
46416;DHT22;32620;51.704;7.822;2022-07-23T11:04:01;25.70;98.40
46416;DHT22;32620;51.704;7.822;2022-07-23T11:09:32;25.70;96.90
46416;DHT22;32620;51.704;7.822;2022-07-23T11:12:32;26.00;98.50
46416;DHT22;32620;51.704;7.822;2022-07-23T11:15:17;26.30;96.90
46416;DHT22;32620;51.704;7.822;2022-07-23T11:17:32;26.10;96.60
46416;DHT22;32620;51.704;7.822;2022-07-23T11:20:15;25.80;97.90
46416;DHT22;32620;51.704;7.822;2022-07-23T11:25:11;25.60;96.20
46416;DHT22;32620;51.704;7.822;2022-07-23T11:27:38;25.70;96.60
46416;DHT22;32620;51.704;7.822;2022-07-23T11:30:05;25.80;96.00
46416;DHT22;32620;51.704;7.822;2022-07-23T11:32:33;25.90;95.30
46416;DHT22;32620;51.704;7.822;2022-07-23T11:35:00;25.00;98.30
46416;DHT22;32620;51.704;7.822;2022-07-23T11:37:34;25.10;98.50
46416;DHT22;32620;51.704;7.822;2022-07-23T11:40:00;25.30;97.70
46416;DHT22;32620;51.704;7.822;2022-07-23T11:42:26;25.80;97.80
46416;DHT22;32620;51.704;7.822;2022-07-23T11:44:52;25.80;97.10
46416;DHT22;32620;51.704;7.822;2022-07-23T11:47:21;25.30;97.20
46416;DHT22;32620;51.704;7.822;2022-07-23T11:49:55;24.90;98.80
46416;DHT22;32620;51.704;7.822;2022-07-23T11:52:21;24.90;99.00
46416;DHT22;32620;51.704;7.822;2022-07-23T11:54:51;25.30;98.40
46416;DHT22;32620;51.704;7.822;2022-07-23T11:57:18;25.80;98.80
46416;DHT22;32620;51.704;7.822;2022-07-23T11:59:43;26.00;98.20
46416;DHT22;32620;51.704;7.822;2022-07-23T12:02:10;25.90;98.00
46416;DHT22;32620;51.704;7.822;2022-07-23T12:04:40;26.20;96.30
46416;DHT22;32620;51.704;7.822;2022-07-23T12:07:38;26.40;95.60
46416;DHT22;32620;51.704;7.822;2022-07-23T12:09:51;26.30;96.20
46416;DHT22;32620;51.704;7.822;2022-07-23T12:12:17;26.30;96.60
46416;DHT22;32620;51.704;7.822;2022-07-23T12:14:50;26.50;97.20
46416;DHT22;32620;51.704;7.822;2022-07-23T12:17:16;26.10;96.10
46416;DHT22;32620;51.704;7.822;2022-07-23T12:19:42;25.90;95.80
46416;DHT22;32620;51.704;7.822;2022-07-23T12:22:07;25.80;95.60
46416;DHT22;32620;51.704;7.822;2022-07-23T12:25:04;25.50;94.80
46416;DHT22;32620;51.704;7.822;2022-07-23T12:27:20;25.80;97.30
46416;DHT22;32620;51.704;7.822;2022-07-23T12:29:46;25.70;97.90
46416;DHT22;32620;51.704;7.822;2022-07-23T12:32:19;25.80;96.90
46416;DHT22;32620;51.704;7.822;2022-07-23T12:34:45;25.80;97.40
46416;DHT22;32620;51.704;7.822;2022-07-23T12:37:26;26.10;95.50
46416;DHT22;32620;51.704;7.822;2022-07-23T12:39:52;26.10;96.60
46416;DHT22;32620;51.704;7.822;2022-07-23T12:42:17;26.00;94.70
46416;DHT22;32620;51.704;7.822;2022-07-23T12:45:15;25.70;97.40
46416;DHT22;32620;51.704;7.822;2022-07-23T12:47:29;26.00;96.80
46416;DHT22;32620;51.704;7.822;2022-07-23T12:49:55;25.90;95.20
46416;DHT22;32620;51.704;7.822;2022-07-23T12:52:20;26.10;96.70
46416;DHT22;32620;51.704;7.822;2022-07-23T12:54:46;26.20;96.20
46416;DHT22;32620;51.704;7.822;2022-07-23T12:57:11;26.30;95.40
46416;DHT22;32620;51.704;7.822;2022-07-23T12:59:37;26.20;95.70
46416;DHT22;32620;51.704;7.822;2022-07-23T13:02:03;26.10;96.00
46416;DHT22;32620;51.704;7.822;2022-07-23T13:04:29;26.00;96.00
46416;DHT22;32620;51.704;7.822;2022-07-23T13:06:57;26.20;94.50
46416;DHT22;32620;51.704;7.822;2022-07-23T13:09:24;26.20;95.40
46416;DHT22;32620;51.704;7.822;2022-07-23T13:11:50;26.20;95.30
46416;DHT22;32620;51.704;7.822;2022-07-23T13:14:17;26.40;94.90
46416;DHT22;32620;51.704;7.822;2022-07-23T13:16:44;26.10;94.10
46416;DHT22;32620;51.704;7.822;2022-07-23T13:19:09;26.00;95.30
46416;DHT22;32620;51.704;7.822;2022-07-23T13:21:35;25.70;93.60
46416;DHT22;32620;51.704;7.822;2022-07-23T13:24:00;25.90;95.00
46416;DHT22;32620;51.704;7.822;2022-07-23T13:26:26;25.80;94.10
46416;DHT22;32620;51.704;7.822;2022-07-23T13:28:52;26.00;94.70
46416;DHT22;32620;51.704;7.822;2022-07-23T13:31:18;26.00;95.00
46416;DHT22;32620;51.704;7.822;2022-07-23T13:33:43;26.00;94.40
46416;DHT22;32620;51.704;7.822;2022-07-23T13:36:09;25.90;94.00
46416;DHT22;32620;51.704;7.822;2022-07-23T13:38:34;25.60;93.80
46416;DHT22;32620;51.704;7.822;2022-07-23T13:41:00;25.30;95.50
46416;DHT22;32620;51.704;7.822;2022-07-23T13:43:25;25.20;95.10
46416;DHT22;32620;51.704;7.822;2022-07-23T13:45:51;25.50;96.50
46416;DHT22;32620;51.704;7.822;2022-07-23T13:48:17;25.90;94.90
46416;DHT22;32620;51.704;7.822;2022-07-23T13:50:43;25.80;93.70
46416;DHT22;32620;51.704;7.822;2022-07-23T13:53:10;25.70;93.50
46416;DHT22;32620;51.704;7.822;2022-07-23T13:55:36;25.80;94.70
46416;DHT22;32620;51.704;7.822;2022-07-23T13:58:02;26.10;94.00
46416;DHT22;32620;51.704;7.822;2022-07-23T14:00:28;26.10;93.60
46416;DHT22;32620;51.704;7.822;2022-07-23T14:02:54;25.90;92.20
46416;DHT22;32620;51.704;7.822;2022-07-23T14:05:19;26.00;93.80
46416;DHT22;32620;51.704;7.822;2022-07-23T14:07:45;25.50;91.80
46416;DHT22;32620;51.704;7.822;2022-07-23T14:10:12;25.60;92.50
46416;DHT22;32620;51.704;7.822;2022-07-23T14:12:37;25.90;93.70
46416;DHT22;32620;51.704;7.822;2022-07-23T14:15:04;26.10;93.60
46416;DHT22;32620;51.704;7.822;2022-07-23T14:17:29;26.00;93.20
46416;DHT22;32620;51.704;7.822;2022-07-23T14:19:55;26.00;92.80
46416;DHT22;32620;51.704;7.822;2022-07-23T14:22:21;26.20;92.40
46416;DHT22;32620;51.704;7.822;2022-07-23T14:24:46;26.30;93.20
46416;DHT22;32620;51.704;7.822;2022-07-23T14:27:12;26.10;92.30
46416;DHT22;32620;51.704;7.822;2022-07-23T14:29:37;25.60;92.20
46416;DHT22;32620;51.704;7.822;2022-07-23T14:32:03;25.60;92.40
46416;DHT22;32620;51.704;7.822;2022-07-23T14:34:29;26.00;92.80
46416;DHT22;32620;51.704;7.822;2022-07-23T14:36:54;26.40;93.20
46416;DHT22;32620;51.704;7.822;2022-07-23T14:39:20;26.40;92.60
46416;DHT22;32620;51.704;7.822;2022-07-23T14:41:46;26.20;90.90
46416;DHT22;32620;51.704;7.822;2022-07-23T14:44:11;26.20;91.20
46416;DHT22;32620;51.704;7.822;2022-07-23T14:46:36;26.30;91.30
46416;DHT22;32620;51.704;7.822;2022-07-23T14:49:02;26.30;91.60
46416;DHT22;32620;51.704;7.822;2022-07-23T14:51:28;26.20;92.10
46416;DHT22;32620;51.704;7.822;2022-07-23T14:53:53;26.10;92.20
46416;DHT22;32620;51.704;7.822;2022-07-23T14:56:19;26.30;92.30
46416;DHT22;32620;51.704;7.822;2022-07-23T14:58:44;26.20;91.80
46416;DHT22;32620;51.704;7.822;2022-07-23T15:01:10;26.30;91.50
46416;DHT22;32620;51.704;7.822;2022-07-23T15:03:35;26.40;92.00
46416;DHT22;32620;51.704;7.822;2022-07-23T15:06:01;26.40;91.80
46416;DHT22;32620;51.704;7.822;2022-07-23T15:08:26;26.40;92.50
46416;DHT22;32620;51.704;7.822;2022-07-23T15:10:52;26.40;92.40
46416;DHT22;32620;51.704;7.822;2022-07-23T15:13:17;26.50;91.70
46416;DHT22;32620;51.704;7.822;2022-07-23T15:15:43;26.50;92.50
46416;DHT22;32620;51.704;7.822;2022-07-23T15:18:08;26.40;91.70
46416;DHT22;32620;51.704;7.822;2022-07-23T15:20:34;26.50;92.90
46416;DHT22;32620;51.704;7.822;2022-07-23T15:22:59;26.40;91.30
46416;DHT22;32620;51.704;7.822;2022-07-23T15:25:25;26.50;92.10
46416;DHT22;32620;51.704;7.822;2022-07-23T15:27:50;25.80;92.40
46416;DHT22;32620;51.704;7.822;2022-07-23T15:30:16;26.00;92.90
46416;DHT22;32620;51.704;7.822;2022-07-23T15:32:41;25.90;92.30
46416;DHT22;32620;51.704;7.822;2022-07-23T15:35:07;26.20;92.80
46416;DHT22;32620;51.704;7.822;2022-07-23T15:37:34;25.80;92.20
46416;DHT22;32620;51.704;7.822;2022-07-23T15:40:00;25.70;93.10
46416;DHT22;32620;51.704;7.822;2022-07-23T15:42:25;25.50;93.00
46416;DHT22;32620;51.704;7.822;2022-07-23T15:44:51;25.50;93.80
46416;DHT22;32620;51.704;7.822;2022-07-23T15:47:17;25.60;94.10
46416;DHT22;32620;51.704;7.822;2022-07-23T15:49:43;25.60;93.60
46416;DHT22;32620;51.704;7.822;2022-07-23T15:52:09;25.60;93.30
46416;DHT22;32620;51.704;7.822;2022-07-23T15:54:35;25.60;92.80
46416;DHT22;32620;51.704;7.822;2022-07-23T15:57:02;25.60;93.40
46416;DHT22;32620;51.704;7.822;2022-07-23T15:59:28;25.70;93.40
46416;DHT22;32620;51.704;7.822;2022-07-23T16:01:54;25.50;92.70
46416;DHT22;32620;51.704;7.822;2022-07-23T16:04:19;25.60;93.50
46416;DHT22;32620;51.704;7.822;2022-07-23T16:06:45;25.40;93.00
46416;DHT22;32620;51.704;7.822;2022-07-23T16:09:10;25.50;92.70
46416;DHT22;32620;51.704;7.822;2022-07-23T16:11:36;25.60;93.40
46416;DHT22;32620;51.704;7.822;2022-07-23T16:14:01;25.80;93.80
46416;DHT22;32620;51.704;7.822;2022-07-23T16:16:27;25.80;93.20
46416;DHT22;32620;51.704;7.822;2022-07-23T16:18:53;25.70;93.20
46416;DHT22;32620;51.704;7.822;2022-07-23T16:21:19;25.50;94.10
46416;DHT22;32620;51.704;7.822;2022-07-23T16:23:44;25.30;93.90
46416;DHT22;32620;51.704;7.822;2022-07-23T16:26:10;25.10;94.50
46416;DHT22;32620;51.704;7.822;2022-07-23T16:28:35;25.00;95.20
46416;DHT22;32620;51.704;7.822;2022-07-23T16:31:01;25.10;94.50
46416;DHT22;32620;51.704;7.822;2022-07-23T16:33:27;24.90;94.30
46416;DHT22;32620;51.704;7.822;2022-07-23T16:35:52;24.80;95.20
46416;DHT22;32620;51.704;7.822;2022-07-23T16:38:18;24.70;96.10
46416;DHT22;32620;51.704;7.822;2022-07-23T16:40:43;24.60;96.20
46416;DHT22;32620;51.704;7.822;2022-07-23T16:43:09;24.50;95.80
46416;DHT22;32620;51.704;7.822;2022-07-23T16:45:34;24.40;96.10
46416;DHT22;32620;51.704;7.822;2022-07-23T16:48:00;24.60;96.70
46416;DHT22;32620;51.704;7.822;2022-07-23T16:50:25;24.70;96.20
46416;DHT22;32620;51.704;7.822;2022-07-23T16:52:51;24.90;96.20
46416;DHT22;32620;51.704;7.822;2022-07-23T16:55:16;24.90;95.50
46416;DHT22;32620;51.704;7.822;2022-07-23T16:57:42;25.00;94.80
46416;DHT22;32620;51.704;7.822;2022-07-23T17:00:07;25.10;95.10
46416;DHT22;32620;51.704;7.822;2022-07-23T17:02:36;25.00;94.90
46416;DHT22;32620;51.704;7.822;2022-07-23T17:05:02;25.00;95.00
46416;DHT22;32620;51.704;7.822;2022-07-23T17:07:28;25.00;95.10
46416;DHT22;32620;51.704;7.822;2022-07-23T17:09:53;25.00;95.00
46416;DHT22;32620;51.704;7.822;2022-07-23T17:12:19;24.90;95.00
46416;DHT22;32620;51.704;7.822;2022-07-23T17:14:44;24.90;95.40
46416;DHT22;32620;51.704;7.822;2022-07-23T17:17:10;24.80;95.60
46416;DHT22;32620;51.704;7.822;2022-07-23T17:19:37;24.60;96.20
46416;DHT22;32620;51.704;7.822;2022-07-23T17:22:03;24.60;96.20
46416;DHT22;32620;51.704;7.822;2022-07-23T17:24:29;24.50;95.90
46416;DHT22;32620;51.704;7.822;2022-07-23T17:26:54;24.40;95.80
46416;DHT22;32620;51.704;7.822;2022-07-23T17:29:20;24.40;96.20
46416;DHT22;32620;51.704;7.822;2022-07-23T17:31:45;24.30;95.90
46416;DHT22;32620;51.704;7.822;2022-07-23T17:34:11;24.30;96.50
46416;DHT22;32620;51.704;7.822;2022-07-23T17:36:36;24.20;96.40
46416;DHT22;32620;51.704;7.822;2022-07-23T17:39:03;24.20;96.20
46416;DHT22;32620;51.704;7.822;2022-07-23T17:41:29;24.10;96.10
46416;DHT22;32620;51.704;7.822;2022-07-23T17:43:54;24.00;96.30
46416;DHT22;32620;51.704;7.822;2022-07-23T17:46:20;24.00;96.70
46416;DHT22;32620;51.704;7.822;2022-07-23T17:48:45;23.90;97.00
46416;DHT22;32620;51.704;7.822;2022-07-23T17:51:11;24.00;97.70
46416;DHT22;32620;51.704;7.822;2022-07-23T17:53:36;24.00;97.40
46416;DHT22;32620;51.704;7.822;2022-07-23T17:56:02;23.90;96.90
46416;DHT22;32620;51.704;7.822;2022-07-23T17:58:29;23.90;97.50
46416;DHT22;32620;51.704;7.822;2022-07-23T18:00:54;23.90;98.10
46416;DHT22;32620;51.704;7.822;2022-07-23T18:03:20;23.70;98.10
46416;DHT22;32620;51.704;7.822;2022-07-23T18:05:45;23.70;98.30
46416;DHT22;32620;51.704;7.822;2022-07-23T18:08:11;23.60;98.60
46416;DHT22;32620;51.704;7.822;2022-07-23T18:10:36;23.50;98.80
46416;DHT22;32620;51.704;7.822;2022-07-23T18:13:03;23.50;99.20
46416;DHT22;32620;51.704;7.822;2022-07-23T18:15:29;23.40;98.60
46416;DHT22;32620;51.704;7.822;2022-07-23T18:17:54;23.40;99.70
46416;DHT22;32620;51.704;7.822;2022-07-23T18:20:20;23.20;99.90
46416;DHT22;32620;51.704;7.822;2022-07-23T18:22:45;23.10;99.90
46416;DHT22;32620;51.704;7.822;2022-07-23T18:25:11;23.00;99.90
46416;DHT22;32620;51.704;7.822;2022-07-23T18:27:37;23.00;99.90
46416;DHT22;32620;51.704;7.822;2022-07-23T18:30:03;23.00;99.90
46416;DHT22;32620;51.704;7.822;2022-07-23T18:32:29;22.90;99.90
46416;DHT22;32620;51.704;7.822;2022-07-23T18:34:55;22.80;99.90
46416;DHT22;32620;51.704;7.822;2022-07-23T18:37:21;22.70;99.90
46416;DHT22;32620;51.704;7.822;2022-07-23T18:39:46;22.70;99.90
46416;DHT22;32620;51.704;7.822;2022-07-23T18:42:12;22.60;99.90
46416;DHT22;32620;51.704;7.822;2022-07-23T18:44:37;22.50;99.90
46416;DHT22;32620;51.704;7.822;2022-07-23T18:47:03;22.40;99.90
46416;DHT22;32620;51.704;7.822;2022-07-23T18:49:29;22.30;99.90
46416;DHT22;32620;51.704;7.822;2022-07-23T18:51:55;22.30;99.90
46416;DHT22;32620;51.704;7.822;2022-07-23T18:54:21;22.10;99.90
46416;DHT22;32620;51.704;7.822;2022-07-23T18:56:46;22.00;99.90
46416;DHT22;32620;51.704;7.822;2022-07-23T18:59:12;21.90;99.90
46416;DHT22;32620;51.704;7.822;2022-07-23T19:01:37;21.80;99.90
46416;DHT22;32620;51.704;7.822;2022-07-23T19:04:03;21.80;99.90
46416;DHT22;32620;51.704;7.822;2022-07-23T19:06:28;21.70;99.90
46416;DHT22;32620;51.704;7.822;2022-07-23T19:08:54;21.60;99.90
46416;DHT22;32620;51.704;7.822;2022-07-23T19:11:19;21.50;99.90
46416;DHT22;32620;51.704;7.822;2022-07-23T19:13:45;21.40;99.90
46416;DHT22;32620;51.704;7.822;2022-07-23T19:16:10;21.30;99.90
46416;DHT22;32620;51.704;7.822;2022-07-23T19:18:36;21.20;99.90
46416;DHT22;32620;51.704;7.822;2022-07-23T19:21:01;21.10;99.90